首页
METAR-TAF:

METAR-TAF

机场 :

奇黑利斯, 华盛顿, 美国

纬度: 46-40-37N, 经度: 122-58-58W, 海拔: 54米

当前天气观测

该预报发布于19分钟前的20:55 UTC
风速16节,风向南转西南,有时为23节阵风
温度 11°C
湿度 66%
气压 1018 hPa
能見度: 16.1公里
多云层高于3600英尺
多云层高于4300英尺
阴天层高于6000英尺

METAR: KCLS 132055Z AUTO 20016G23KT 10SM BKN036 BKN043 OVC060 11/05 A3006 RMK AO2

时间: 13:14 (21:14 UTC)


TAF: 丢失

超过4000个机场的气象观测和天气预报(METAR&TAF报告)。

可查询的气象台以黄色和红色小点在地图上表示。

将鼠标移到小点上方,可查看气象台名称。

然后点击查看天气观测和预报。

如需切换地图:点击带黑十字的绿色按钮放大地图;点击带横线的绿色按钮缩小地图;或者点击绿色箭头查看邻近地区的地图。


METAR-TAF: